sensor_id;sensor_type;location;lat;lon;timestamp;pressure;altitude;pressure_sealevel;temperature;humidity
63500;BME280;49654;51.142;14.924;2023-05-10T00:02:00;98906.28;;;11.43;53.33
63500;BME280;49654;51.142;14.924;2023-05-10T00:04:27;98897.63;;;11.57;52.56
63500;BME280;49654;51.142;14.924;2023-05-10T00:06:54;98888.56;;;11.74;51.80
63500;BME280;49654;51.142;14.924;2023-05-10T00:09:21;98899.47;;;11.63;51.86
63500;BME280;49654;51.142;14.924;2023-05-10T00:11:48;98884.97;;;11.75;51.18
63500;BME280;49654;51.142;14.924;2023-05-10T00:14:15;98885.91;;;11.89;51.87
63500;BME280;49654;51.142;14.924;2023-05-10T00:16:43;98801.75;;;11.26;51.68
63500;BME280;49654;51.142;14.924;2023-05-10T00:19:10;98878.06;;;11.83;51.53
63500;BME280;49654;51.142;14.924;2023-05-10T00:21:37;98872.56;;;12.34;49.08
63500;BME280;49654;51.142;14.924;2023-05-10T00:24:05;98857.38;;;12.44;49.09
63500;BME280;49654;51.142;14.924;2023-05-10T00:26:32;98798.13;;;12.05;49.07
63500;BME280;49654;51.142;14.924;2023-05-10T00:28:59;98853.13;;;12.30;50.42
63500;BME280;49654;51.142;14.924;2023-05-10T00:31:25;98766.09;;;12.04;47.32
63500;BME280;49654;51.142;14.924;2023-05-10T00:33:54;98856.34;;;12.86;47.54
63500;BME280;49654;51.142;14.924;2023-05-10T00:36:21;98810.63;;;12.77;46.07
63500;BME280;49654;51.142;14.924;2023-05-10T00:38:48;98852.19;;;13.18;45.92
63500;BME280;49654;51.142;14.924;2023-05-10T00:41:15;98820.28;;;12.90;46.17
63500;BME280;49654;51.142;14.924;2023-05-10T00:43:42;98784.16;;;12.73;45.49
63500;BME280;49654;51.142;14.924;2023-05-10T00:46:09;98770.72;;;12.83;45.83
63500;BME280;49654;51.142;14.924;2023-05-10T00:48:36;98857.44;;;13.38;46.43
63500;BME280;49654;51.142;14.924;2023-05-10T00:51:05;98827.50;;;12.94;47.82
63500;BME280;49654;51.142;14.924;2023-05-10T00:53:32;98830.69;;;12.90;47.97
63500;BME280;49654;51.142;14.924;2023-05-10T00:56:01;98845.53;;;12.89;48.78
63500;BME280;49654;51.142;14.924;2023-05-10T00:58:29;98783.84;;;12.42;48.48
63500;BME280;49654;51.142;14.924;2023-05-10T01:00:57;98823.63;;;12.64;48.87
63500;BME280;49654;51.142;14.924;2023-05-10T01:03:25;98739.22;;;11.97;48.94
63500;BME280;49654;51.142;14.924;2023-05-10T01:05:52;98843.53;;;12.98;47.49
63500;BME280;49654;51.142;14.924;2023-05-10T01:08:20;98849.75;;;13.03;47.50
63500;BME280;49654;51.142;14.924;2023-05-10T01:10:47;98805.22;;;12.92;46.86
63500;BME280;49654;51.142;14.924;2023-05-10T01:13:23;98833.34;;;13.16;47.07
63500;BME280;49654;51.142;14.924;2023-05-10T01:15:54;98763.09;;;12.55;48.31
63500;BME280;49654;51.142;14.924;2023-05-10T01:18:21;98727.13;;;12.17;47.80
63500;BME280;49654;51.142;14.924;2023-05-10T01:20:54;98839.72;;;13.00;47.88
63500;BME280;49654;51.142;14.924;2023-05-10T01:23:42;98798.81;;;12.81;46.96
63500;BME280;49654;51.142;14.924;2023-05-10T01:26:44;98813.69;;;13.20;45.96
63500;BME280;49654;51.142;14.924;2023-05-10T01:29:51;98798.88;;;13.27;45.37
63500;BME280;49654;51.142;14.924;2023-05-10T01:32:31;98774.97;;;13.17;45.88
63500;BME280;49654;51.142;14.924;2023-05-10T01:35:03;98790.22;;;13.14;47.44
63500;BME280;49654;51.142;14.924;2023-05-10T01:37:38;98756.09;;;12.89;46.76
63500;BME280;49654;51.142;14.924;2023-05-10T01:40:13;98749.31;;;12.81;46.21
63500;BME280;49654;51.142;14.924;2023-05-10T01:42:49;98810.53;;;13.45;46.64
63500;BME280;49654;51.142;14.924;2023-05-10T01:45:23;98814.72;;;13.52;45.95
63500;BME280;49654;51.142;14.924;2023-05-10T01:47:58;98785.25;;;13.45;45.54
63500;BME280;49654;51.142;14.924;2023-05-10T01:50:30;98776.19;;;13.48;45.41
63500;BME280;49654;51.142;14.924;2023-05-10T01:52:59;98738.88;;;13.14;45.98
63500;BME280;49654;51.142;14.924;2023-05-10T01:55:29;98788.84;;;13.24;46.41
63500;BME280;49654;51.142;14.924;2023-05-10T01:58:01;98805.28;;;13.38;46.19
63500;BME280;49654;51.142;14.924;2023-05-10T02:00:29;98787.25;;;13.37;46.72
63500;BME280;49654;51.142;14.924;2023-05-10T02:03:00;98808.09;;;13.50;46.33
63500;BME280;49654;51.142;14.924;2023-05-10T02:05:29;98774.19;;;13.30;46.61
63500;BME280;49654;51.142;14.924;2023-05-10T02:07:59;98803.09;;;13.42;46.81
63500;BME280;49654;51.142;14.924;2023-05-10T02:10:28;98777.97;;;13.14;46.94
63500;BME280;49654;51.142;14.924;2023-05-10T02:12:58;98766.34;;;13.10;46.88
63500;BME280;49654;51.142;14.924;2023-05-10T02:15:26;98761.13;;;13.03;47.85
63500;BME280;49654;51.142;14.924;2023-05-10T02:17:55;98796.06;;;13.22;48.59
63500;BME280;49654;51.142;14.924;2023-05-10T02:20:24;98790.41;;;13.06;49.11
63500;BME280;49654;51.142;14.924;2023-05-10T02:22:54;98738.88;;;12.68;48.41
63500;BME280;49654;51.142;14.924;2023-05-10T02:25:22;98770.34;;;12.86;47.93
63500;BME280;49654;51.142;14.924;2023-05-10T02:27:51;98724.44;;;12.72;48.03
63500;BME280;49654;51.142;14.924;2023-05-10T02:30:23;98782.56;;;12.92;49.94
63500;BME280;49654;51.142;14.924;2023-05-10T02:32:51;98797.59;;;12.84;48.70
63500;BME280;49654;51.142;14.924;2023-05-10T02:35:19;98708.53;;;12.40;48.89
63500;BME280;49654;51.142;14.924;2023-05-10T02:37:48;98729.00;;;12.63;48.12
63500;BME280;49654;51.142;14.924;2023-05-10T02:40:16;98786.41;;;13.16;47.91
63500;BME280;49654;51.142;14.924;2023-05-10T02:42:47;98768.56;;;12.93;48.39
63500;BME280;49654;51.142;14.924;2023-05-10T02:45:18;98714.97;;;12.38;49.55
63500;BME280;49654;51.142;14.924;2023-05-10T02:47:46;98737.97;;;12.41;49.25
63500;BME280;49654;51.142;14.924;2023-05-10T02:50:13;98811.63;;;12.83;49.79
63500;BME280;49654;51.142;14.924;2023-05-10T02:52:44;98778.28;;;12.58;49.86
63500;BME280;49654;51.142;14.924;2023-05-10T02:55:15;98734.50;;;12.20;50.71
63500;BME280;49654;51.142;14.924;2023-05-10T02:57:46;98740.88;;;12.05;51.65
63500;BME280;49654;51.142;14.924;2023-05-10T03:00:15;98801.16;;;12.63;50.46
63500;BME280;49654;51.142;14.924;2023-05-10T03:02:42;98765.34;;;12.17;51.93
63500;BME280;49654;51.142;14.924;2023-05-10T03:05:09;98687.38;;;11.54;52.76
63500;BME280;49654;51.142;14.924;2023-05-10T03:07:36;98805.03;;;12.25;52.24
63500;BME280;49654;51.142;14.924;2023-05-10T03:10:03;98780.91;;;12.03;53.26
63500;BME280;49654;51.142;14.924;2023-05-10T03:12:41;98781.28;;;12.00;53.55
63500;BME280;49654;51.142;14.924;2023-05-10T03:15:17;98778.03;;;11.92;54.75
63500;BME280;49654;51.142;14.924;2023-05-10T03:17:49;98738.59;;;11.60;54.59
63500;BME280;49654;51.142;14.924;2023-05-10T03:20:22;98787.34;;;11.79;54.83
63500;BME280;49654;51.142;14.924;2023-05-10T03:22:53;98758.59;;;11.53;54.55
63500;BME280;49654;51.142;14.924;2023-05-10T03:25:22;98734.19;;;11.26;54.30
63500;BME280;49654;51.142;14.924;2023-05-10T03:27:52;98824.78;;;11.78;54.92
63500;BME280;49654;51.142;14.924;2023-05-10T03:30:21;98800.44;;;11.65;56.30
63500;BME280;49654;51.142;14.924;2023-05-10T03:32:48;98820.66;;;11.63;56.17
63500;BME280;49654;51.142;14.924;2023-05-10T03:35:15;98800.69;;;11.42;57.41
63500;BME280;49654;51.142;14.924;2023-05-10T03:37:42;98723.91;;;10.90;56.93
63500;BME280;49654;51.142;14.924;2023-05-10T03:40:09;98749.81;;;10.83;56.87
63500;BME280;49654;51.142;14.924;2023-05-10T03:42:36;98798.63;;;11.31;56.74
63500;BME280;49654;51.142;14.924;2023-05-10T03:45:06;98775.28;;;11.16;57.38
63500;BME280;49654;51.142;14.924;2023-05-10T03:47:33;98747.38;;;10.96;56.89
63500;BME280;49654;51.142;14.924;2023-05-10T03:50:00;98821.13;;;11.45;57.52
63500;BME280;49654;51.142;14.924;2023-05-10T03:52:28;98735.22;;;10.82;58.25
63500;BME280;49654;51.142;14.924;2023-05-10T03:54:55;98797.44;;;11.12;58.58
63500;BME280;49654;51.142;14.924;2023-05-10T03:57:22;98769.31;;;10.94;58.13
63500;BME280;49654;51.142;14.924;2023-05-10T03:59:49;98702.47;;;10.60;58.42
63500;BME280;49654;51.142;14.924;2023-05-10T04:02:25;98822.81;;;11.31;58.74
63500;BME280;49654;51.142;14.924;2023-05-10T04:04:58;98780.25;;;11.11;59.48
63500;BME280;49654;51.142;14.924;2023-05-10T04:07:30;98787.13;;;11.18;59.43
63500;BME280;49654;51.142;14.924;2023-05-10T04:10:01;98725.41;;;10.77;59.27
63500;BME280;49654;51.142;14.924;2023-05-10T04:12:35;98654.69;;;10.33;60.20
63500;BME280;49654;51.142;14.924;2023-05-10T04:15:06;98788.66;;;11.13;60.84
63500;BME280;49654;51.142;14.924;2023-05-10T04:17:55;98832.25;;;11.39;59.90
63500;BME280;49654;51.142;14.924;2023-05-10T04:20:36;98750.50;;;10.92;60.50
63500;BME280;49654;51.142;14.924;2023-05-10T04:23:06;98734.66;;;10.87;60.48
63500;BME280;49654;51.142;14.924;2023-05-10T04:25:38;98822.34;;;11.49;60.43
63500;BME280;49654;51.142;14.924;2023-05-10T04:28:14;98827.78;;;11.54;60.81
63500;BME280;49654;51.142;14.924;2023-05-10T04:30:41;98681.69;;;10.81;60.34
63500;BME280;49654;51.142;14.924;2023-05-10T04:33:20;98731.88;;;11.10;60.46
63500;BME280;49654;51.142;14.924;2023-05-10T04:35:55;98820.25;;;11.87;60.05
63500;BME280;49654;51.142;14.924;2023-05-10T04:38:27;98704.22;;;11.02;60.23
63500;BME280;49654;51.142;14.924;2023-05-10T04:41:03;98736.38;;;11.22;60.66
63500;BME280;49654;51.142;14.924;2023-05-10T04:43:31;98660.97;;;10.88;60.22
63500;BME280;49654;51.142;14.924;2023-05-10T04:46:04;98817.69;;;11.94;60.17
63500;BME280;49654;51.142;14.924;2023-05-10T04:48:45;98743.22;;;11.58;59.86
63500;BME280;49654;51.142;14.924;2023-05-10T04:51:13;98722.56;;;11.50;59.49
63500;BME280;49654;51.142;14.924;2023-05-10T04:53:41;98712.13;;;11.78;58.46
63500;BME280;49654;51.142;14.924;2023-05-10T04:56:08;98693.91;;;11.78;58.22
63500;BME280;49654;51.142;14.924;2023-05-10T04:58:34;98703.19;;;11.94;57.83
63500;BME280;49654;51.142;14.924;2023-05-10T05:01:05;98713.06;;;12.12;57.62
63500;BME280;49654;51.142;14.924;2023-05-10T05:03:40;98766.88;;;12.52;57.33
63500;BME280;49654;51.142;14.924;2023-05-10T05:06:13;98786.38;;;12.83;56.37
63500;BME280;49654;51.142;14.924;2023-05-10T05:08:41;98727.81;;;12.59;55.70
63500;BME280;49654;51.142;14.924;2023-05-10T05:11:11;98708.16;;;12.63;55.82
63500;BME280;49654;51.142;14.924;2023-05-10T05:13:39;98777.81;;;13.22;54.57
63500;BME280;49654;51.142;14.924;2023-05-10T05:16:06;98806.69;;;13.54;54.06
63500;BME280;49654;51.142;14.924;2023-05-10T05:21:31;98779.34;;;13.83;52.62
63500;BME280;49654;51.142;14.924;2023-05-10T05:23:58;98715.22;;;13.36;51.36
63500;BME280;49654;51.142;14.924;2023-05-10T05:26:26;98812.00;;;14.12;51.51
63500;BME280;49654;51.142;14.924;2023-05-10T05:28:53;98818.75;;;14.33;51.87
63500;BME280;49654;51.142;14.924;2023-05-10T05:31:20;98774.84;;;14.10;50.90
63500;BME280;49654;51.142;14.924;2023-05-10T05:33:49;98749.75;;;14.09;49.75
63500;BME280;49654;51.142;14.924;2023-05-10T05:36:16;98766.19;;;14.16;51.06
63500;BME280;49654;51.142;14.924;2023-05-10T05:38:43;98793.00;;;14.50;49.67
63500;BME280;49654;51.142;14.924;2023-05-10T05:41:10;98790.91;;;14.65;50.07
63500;BME280;49654;51.142;14.924;2023-05-10T05:43:37;98804.72;;;14.72;49.08
63500;BME280;49654;51.142;14.924;2023-05-10T05:46:17;98818.16;;;14.83;49.69
63500;BME280;49654;51.142;14.924;2023-05-10T05:49:07;98647.06;;;13.84;48.07
63500;BME280;49654;51.142;14.924;2023-05-10T05:51:46;98608.09;;;13.89;47.20
63500;BME280;49654;51.142;14.924;2023-05-10T05:54:25;98746.25;;;14.73;49.68
63500;BME280;49654;51.142;14.924;2023-05-10T05:57:00;98747.78;;;14.81;48.07
63500;BME280;49654;51.142;14.924;2023-05-10T06:03:40;98764.19;;;14.95;46.44
63500;BME280;49654;51.142;14.924;2023-05-10T06:17:40;98723.84;;;15.09;44.88
63500;BME280;49654;51.142;14.924;2023-05-10T06:20:21;98592.66;;;14.44;44.32
63500;BME280;49654;51.142;14.924;2023-05-10T06:22:59;98743.59;;;15.48;43.90
63500;BME280;49654;51.142;14.924;2023-05-10T06:28:48;98795.28;;;15.78;43.39
63500;BME280;49654;51.142;14.924;2023-05-10T06:31:15;98802.88;;;15.86;43.19
63500;BME280;49654;51.142;14.924;2023-05-10T06:33:44;98788.97;;;15.86;43.86
63500;BME280;49654;51.142;14.924;2023-05-10T06:36:11;98787.53;;;15.90;44.47
63500;BME280;49654;51.142;14.924;2023-05-10T06:38:39;98769.47;;;16.00;43.71
63500;BME280;49654;51.142;14.924;2023-05-10T06:41:06;98785.59;;;16.34;44.49
63500;BME280;49654;51.142;14.924;2023-05-10T06:43:32;98768.84;;;16.35;43.36
63500;BME280;49654;51.142;14.924;2023-05-10T06:46:00;98780.91;;;16.24;42.95
63500;BME280;49654;51.142;14.924;2023-05-10T06:48:27;98786.09;;;16.42;43.33
63500;BME280;49654;51.142;14.924;2023-05-10T06:50:55;98788.94;;;16.41;42.54
63500;BME280;49654;51.142;14.924;2023-05-10T06:53:22;98745.47;;;16.03;43.17
63500;BME280;49654;51.142;14.924;2023-05-10T06:55:49;98787.03;;;16.48;42.51
63500;BME280;49654;51.142;14.924;2023-05-10T06:58:16;98728.72;;;16.04;43.18
63500;BME280;49654;51.142;14.924;2023-05-10T07:00:44;98783.06;;;16.57;42.17
63500;BME280;49654;51.142;14.924;2023-05-10T07:03:12;98787.50;;;16.57;42.51
63500;BME280;49654;51.142;14.924;2023-05-10T07:05:39;98776.34;;;16.49;42.31
63500;BME280;49654;51.142;14.924;2023-05-10T07:08:07;98780.81;;;16.91;41.90
63500;BME280;49654;51.142;14.924;2023-05-10T07:10:34;98791.97;;;16.86;42.28
63500;BME280;49654;51.142;14.924;2023-05-10T07:13:01;98661.53;;;16.28;43.04
63500;BME280;49654;51.142;14.924;2023-05-10T07:15:28;98781.75;;;17.08;42.66
63500;BME280;49654;51.142;14.924;2023-05-10T07:17:55;98783.81;;;17.06;40.39
63500;BME280;49654;51.142;14.924;2023-05-10T07:20:22;98771.22;;;16.85;40.54
63500;BME280;49654;51.142;14.924;2023-05-10T07:22:49;98783.00;;;16.94;40.18
63500;BME280;49654;51.142;14.924;2023-05-10T07:25:17;98777.09;;;17.10;40.73
63500;BME280;49654;51.142;14.924;2023-05-10T07:27:44;98784.53;;;17.25;41.51
63500;BME280;49654;51.142;14.924;2023-05-10T07:30:14;98787.31;;;17.00;39.53
63500;BME280;49654;51.142;14.924;2023-05-10T07:32:41;98798.19;;;17.03;39.52
63500;BME280;49654;51.142;14.924;2023-05-10T07:35:08;98783.03;;;17.06;39.69
63500;BME280;49654;51.142;14.924;2023-05-10T07:37:35;98791.03;;;17.22;39.99
63500;BME280;49654;51.142;14.924;2023-05-10T07:40:02;98792.06;;;17.45;39.99
63500;BME280;49654;51.142;14.924;2023-05-10T07:42:31;98774.16;;;17.53;39.37
63500;BME280;49654;51.142;14.924;2023-05-10T07:44:58;98768.09;;;17.41;39.32
63500;BME280;49654;51.142;14.924;2023-05-10T07:47:25;98785.81;;;17.69;38.86
63500;BME280;49654;51.142;14.924;2023-05-10T07:49:52;98784.91;;;17.75;38.89
63500;BME280;49654;51.142;14.924;2023-05-10T07:52:18;98711.97;;;17.31;39.29
63500;BME280;49654;51.142;14.924;2023-05-10T07:54:46;98751.13;;;17.44;38.74
63500;BME280;49654;51.142;14.924;2023-05-10T07:57:13;98783.66;;;17.78;40.14
63500;BME280;49654;51.142;14.924;2023-05-10T07:59:44;98791.84;;;17.93;38.82
63500;BME280;49654;51.142;14.924;2023-05-10T08:02:11;98777.34;;;17.91;37.63
63500;BME280;49654;51.142;14.924;2023-05-10T08:04:38;98793.22;;;17.84;39.77
63500;BME280;49654;51.142;14.924;2023-05-10T08:07:05;98787.72;;;18.09;39.33
63500;BME280;49654;51.142;14.924;2023-05-10T08:09:32;98749.34;;;18.08;38.92
63500;BME280;49654;51.142;14.924;2023-05-10T08:11:59;98795.22;;;18.29;38.19
63500;BME280;49654;51.142;14.924;2023-05-10T08:14:28;98797.84;;;18.17;38.20
63500;BME280;49654;51.142;14.924;2023-05-10T08:16:56;98798.41;;;18.19;38.97
63500;BME280;49654;51.142;14.924;2023-05-10T08:19:23;98783.94;;;18.17;38.67
63500;BME280;49654;51.142;14.924;2023-05-10T08:21:50;98791.50;;;18.42;38.58
63500;BME280;49654;51.142;14.924;2023-05-10T08:24:17;98795.56;;;18.49;38.60
63500;BME280;49654;51.142;14.924;2023-05-10T08:26:45;98735.25;;;18.14;38.56
63500;BME280;49654;51.142;14.924;2023-05-10T08:29:12;98797.28;;;18.56;39.55
63500;BME280;49654;51.142;14.924;2023-05-10T08:31:39;98790.22;;;18.85;39.58
63500;BME280;49654;51.142;14.924;2023-05-10T08:34:07;98772.34;;;19.04;38.56
63500;BME280;49654;51.142;14.924;2023-05-10T08:36:34;98769.56;;;19.10;38.52
63500;BME280;49654;51.142;14.924;2023-05-10T08:39:01;98759.84;;;18.65;37.20
63500;BME280;49654;51.142;14.924;2023-05-10T08:41:29;98800.19;;;18.99;37.63
63500;BME280;49654;51.142;14.924;2023-05-10T08:44:04;98758.72;;;18.90;38.24
63500;BME280;49654;51.142;14.924;2023-05-10T08:46:33;98755.34;;;18.77;37.90
63500;BME280;49654;51.142;14.924;2023-05-10T08:49:02;98657.78;;;18.17;36.15
63500;BME280;49654;51.142;14.924;2023-05-10T08:51:33;98801.56;;;19.36;37.34
63500;BME280;49654;51.142;14.924;2023-05-10T08:54:03;98802.03;;;19.49;37.56
63500;BME280;49654;51.142;14.924;2023-05-10T08:56:30;98799.53;;;19.60;38.42
63500;BME280;49654;51.142;14.924;2023-05-10T08:58:57;98733.50;;;19.27;38.42
63500;BME280;49654;51.142;14.924;2023-05-10T09:01:25;98749.84;;;19.13;37.83
63500;BME280;49654;51.142;14.924;2023-05-10T09:03:53;98794.19;;;19.38;36.92
63500;BME280;49654;51.142;14.924;2023-05-10T09:06:20;98787.41;;;19.42;38.36
63500;BME280;49654;51.142;14.924;2023-05-10T09:08:49;98744.13;;;19.16;37.01
63500;BME280;49654;51.142;14.924;2023-05-10T09:11:17;98737.91;;;19.05;35.94
63500;BME280;49654;51.142;14.924;2023-05-10T09:13:44;98797.94;;;19.59;37.51
63500;BME280;49654;51.142;14.924;2023-05-10T09:16:11;98722.81;;;19.34;38.67
63500;BME280;49654;51.142;14.924;2023-05-10T09:18:38;98775.34;;;19.80;36.82
63500;BME280;49654;51.142;14.924;2023-05-10T09:21:05;98696.25;;;19.36;36.77
63500;BME280;49654;51.142;14.924;2023-05-10T09:23:32;98792.44;;;19.99;36.43
63500;BME280;49654;51.142;14.924;2023-05-10T09:26:03;98783.56;;;20.05;36.07
63500;BME280;49654;51.142;14.924;2023-05-10T09:28:32;98796.53;;;20.12;37.49
63500;BME280;49654;51.142;14.924;2023-05-10T09:30:58;98796.19;;;20.03;36.43
63500;BME280;49654;51.142;14.924;2023-05-10T09:33:25;98803.66;;;19.89;36.50
63500;BME280;49654;51.142;14.924;2023-05-10T09:35:52;98786.25;;;19.88;36.74
63500;BME280;49654;51.142;14.924;2023-05-10T09:38:19;98801.16;;;20.21;35.15
63500;BME280;49654;51.142;14.924;2023-05-10T09:40:51;98794.44;;;20.85;36.25
63500;BME280;49654;51.142;14.924;2023-05-10T09:43:21;98778.56;;;21.86;34.09
63500;BME280;49654;51.142;14.924;2023-05-10T09:45:48;98776.50;;;22.97;30.63
63500;BME280;49654;51.142;14.924;2023-05-10T09:48:16;98795.75;;;23.79;29.36
63500;BME280;49654;51.142;14.924;2023-05-10T09:50:43;98704.53;;;25.03;26.88
63500;BME280;49654;51.142;14.924;2023-05-10T09:53:14;98785.91;;;25.52;27.33
63500;BME280;49654;51.142;14.924;2023-05-10T09:55:42;98781.97;;;26.21;26.61
63500;BME280;49654;51.142;14.924;2023-05-10T09:58:10;98762.84;;;26.19;26.38
63500;BME280;49654;51.142;14.924;2023-05-10T10:00:40;98784.66;;;27.57;25.34
63500;BME280;49654;51.142;14.924;2023-05-10T10:03:12;98745.97;;;27.00;25.74
63500;BME280;49654;51.142;14.924;2023-05-10T10:05:41;98784.91;;;26.95;24.15
63500;BME280;49654;51.142;14.924;2023-05-10T10:08:09;98789.81;;;26.32;26.81
63500;BME280;49654;51.142;14.924;2023-05-10T10:10:36;98769.31;;;25.07;27.52
63500;BME280;49654;51.142;14.924;2023-05-10T10:13:04;98790.66;;;24.03;29.59
63500;BME280;49654;51.142;14.924;2023-05-10T10:15:32;98785.16;;;23.59;31.79
63500;BME280;49654;51.142;14.924;2023-05-10T10:18:01;98746.50;;;22.45;33.12
63500;BME280;49654;51.142;14.924;2023-05-10T10:20:29;98783.47;;;21.67;32.57
63500;BME280;49654;51.142;14.924;2023-05-10T10:22:56;98742.75;;;20.89;34.23
63500;BME280;49654;51.142;14.924;2023-05-10T10:25:23;98764.50;;;21.01;35.24
63500;BME280;49654;51.142;14.924;2023-05-10T10:28:07;98755.16;;;20.88;33.67
63500;BME280;49654;51.142;14.924;2023-05-10T10:30:40;98722.56;;;20.72;33.28
63500;BME280;49654;51.142;14.924;2023-05-10T10:33:48;98786.91;;;21.31;35.64
63500;BME280;49654;51.142;14.924;2023-05-10T10:36:18;98785.16;;;21.09;34.28
63500;BME280;49654;51.142;14.924;2023-05-10T10:38:55;98778.75;;;21.00;36.79
63500;BME280;49654;51.142;14.924;2023-05-10T10:41:30;98780.06;;;21.02;32.64
63500;BME280;49654;51.142;14.924;2023-05-10T10:44:24;98767.03;;;20.86;35.58
63500;BME280;49654;51.142;14.924;2023-05-10T10:47:03;98772.97;;;21.35;36.76
63500;BME280;49654;51.142;14.924;2023-05-10T10:49:34;98726.50;;;21.02;34.03
63500;BME280;49654;51.142;14.924;2023-05-10T10:52:14;98780.63;;;21.37;34.80
63500;BME280;49654;51.142;14.924;2023-05-10T10:54:41;98741.13;;;21.52;35.46
63500;BME280;49654;51.142;14.924;2023-05-10T10:57:14;98772.75;;;21.89;34.17
63500;BME280;49654;51.142;14.924;2023-05-10T10:59:41;98757.31;;;22.18;34.95
63500;BME280;49654;51.142;14.924;2023-05-10T11:02:09;98779.09;;;22.66;34.47
63500;BME280;49654;51.142;14.924;2023-05-10T11:04:44;98769.00;;;23.70;31.96
63500;BME280;49654;51.142;14.924;2023-05-10T11:07:16;98771.75;;;24.20;31.18
63500;BME280;49654;51.142;14.924;2023-05-10T11:09:43;98786.66;;;25.87;28.30
63500;BME280;49654;51.142;14.924;2023-05-10T11:12:10;98765.31;;;26.35;26.13
63500;BME280;49654;51.142;14.924;2023-05-10T11:14:37;98762.56;;;26.40;25.39
63500;BME280;49654;51.142;14.924;2023-05-10T11:17:22;98773.69;;;26.42;25.50
63500;BME280;49654;51.142;14.924;2023-05-10T11:20:14;98775.88;;;26.21;27.70
63500;BME280;49654;51.142;14.924;2023-05-10T11:22:50;98760.72;;;25.97;28.12
63500;BME280;49654;51.142;14.924;2023-05-10T11:25:17;98758.81;;;27.71;25.85
63500;BME280;49654;51.142;14.924;2023-05-10T11:27:45;98755.75;;;27.64;24.26
63500;BME280;49654;51.142;14.924;2023-05-10T11:30:14;98760.78;;;29.33;23.26
63500;BME280;49654;51.142;14.924;2023-05-10T11:32:41;98748.22;;;31.30;21.14
63500;BME280;49654;51.142;14.924;2023-05-10T11:35:11;98763.00;;;32.54;20.14
63500;BME280;49654;51.142;14.924;2023-05-10T11:37:38;98744.72;;;30.56;20.50
63500;BME280;49654;51.142;14.924;2023-05-10T11:40:07;98755.22;;;31.90;20.18
63500;BME280;49654;51.142;14.924;2023-05-10T11:42:36;98767.28;;;32.55;18.08
63500;BME280;49654;51.142;14.924;2023-05-10T11:45:04;98764.06;;;34.98;17.22
63500;BME280;49654;51.142;14.924;2023-05-10T11:47:31;98764.81;;;34.83;16.51
63500;BME280;49654;51.142;14.924;2023-05-10T11:49:58;98769.56;;;35.02;16.82
63500;BME280;49654;51.142;14.924;2023-05-10T11:52:27;98753.84;;;35.86;16.20
63500;BME280;49654;51.142;14.924;2023-05-10T11:54:55;98725.78;;;35.40;15.98
63500;BME280;49654;51.142;14.924;2023-05-10T11:57:26;98754.88;;;37.90;15.30
63500;BME280;49654;51.142;14.924;2023-05-10T11:59:54;98754.91;;;35.98;14.70
63500;BME280;49654;51.142;14.924;2023-05-10T12:02:21;98767.09;;;34.97;16.79
63500;BME280;49654;51.142;14.924;2023-05-10T12:04:48;98761.09;;;34.59;16.14
63500;BME280;49654;51.142;14.924;2023-05-10T12:07:15;98765.63;;;36.68;14.88
63500;BME280;49654;51.142;14.924;2023-05-10T12:09:44;98769.59;;;38.49;12.67
63500;BME280;49654;51.142;14.924;2023-05-10T12:12:16;98766.03;;;39.20;12.60
63500;BME280;49654;51.142;14.924;2023-05-10T12:14:43;98757.13;;;40.47;13.14
63500;BME280;49654;51.142;14.924;2023-05-10T12:17:11;98758.03;;;41.05;12.17
63500;BME280;49654;51.142;14.924;2023-05-10T12:19:38;98762.31;;;37.44;14.62
63500;BME280;49654;51.142;14.924;2023-05-10T12:22:06;98766.72;;;35.58;14.93
63500;BME280;49654;51.142;14.924;2023-05-10T12:24:34;98763.44;;;37.43;13.39
63500;BME280;49654;51.142;14.924;2023-05-10T12:27:05;98778.50;;;34.62;14.59
63500;BME280;49654;51.142;14.924;2023-05-10T12:29:33;98785.22;;;30.98;18.66
63500;BME280;49654;51.142;14.924;2023-05-10T12:32:01;98757.22;;;29.78;22.85
63500;BME280;49654;51.142;14.924;2023-05-10T12:34:31;98775.09;;;33.27;16.98
63500;BME280;49654;51.142;14.924;2023-05-10T12:36:58;98775.53;;;31.70;18.47
63500;BME280;49654;51.142;14.924;2023-05-10T12:39:26;98760.16;;;34.68;16.49
63500;BME280;49654;51.142;14.924;2023-05-10T12:41:53;98771.41;;;33.19;16.28
63500;BME280;49654;51.142;14.924;2023-05-10T12:44:21;98747.13;;;31.60;18.67
63500;BME280;49654;51.142;14.924;2023-05-10T12:46:48;98779.53;;;31.55;19.52
63500;BME280;49654;51.142;14.924;2023-05-10T12:49:15;98719.50;;;30.31;20.67
63500;BME280;49654;51.142;14.924;2023-05-10T12:51:42;98766.03;;;33.19;18.17
63500;BME280;49654;51.142;14.924;2023-05-10T12:54:09;98769.63;;;37.40;15.02
63500;BME280;49654;51.142;14.924;2023-05-10T12:56:36;98773.63;;;37.76;13.56
63500;BME280;49654;51.142;14.924;2023-05-10T12:59:04;98752.69;;;37.23;13.44
63500;BME280;49654;51.142;14.924;2023-05-10T13:01:32;98743.22;;;33.62;16.34
63500;BME280;49654;51.142;14.924;2023-05-10T13:03:59;98773.63;;;32.84;18.53
63500;BME280;49654;51.142;14.924;2023-05-10T13:06:26;98785.06;;;30.51;19.69
63500;BME280;49654;51.142;14.924;2023-05-10T13:08:53;98778.59;;;33.15;18.58
63500;BME280;49654;51.142;14.924;2023-05-10T13:11:20;98781.00;;;32.33;19.25
63500;BME280;49654;51.142;14.924;2023-05-10T13:13:47;98781.88;;;35.62;16.15
63500;BME280;49654;51.142;14.924;2023-05-10T13:16:14;98769.25;;;38.54;13.58
63500;BME280;49654;51.142;14.924;2023-05-10T13:18:42;98779.91;;;39.07;12.67
63500;BME280;49654;51.142;14.924;2023-05-10T13:21:09;98778.56;;;36.98;14.19
63500;BME280;49654;51.142;14.924;2023-05-10T13:23:36;98773.06;;;35.66;15.62
63500;BME280;49654;51.142;14.924;2023-05-10T13:26:03;98777.22;;;34.72;15.72